createdAt,value
2023-08-16T00:02:24.162Z,17.95
2023-08-16T00:04:51.259Z,17.78
2023-08-16T00:07:17.926Z,17.73
2023-08-16T00:09:44.709Z,17.69
2023-08-16T00:12:11.732Z,17.87
2023-08-16T00:14:38.400Z,18.02
2023-08-16T00:17:06.098Z,17.95
2023-08-16T00:19:32.736Z,17.61
2023-08-16T00:21:59.434Z,17.63
2023-08-16T00:24:26.124Z,17.38
2023-08-16T00:26:52.745Z,17.52
2023-08-16T00:29:19.679Z,17.35
2023-08-16T00:31:46.348Z,17.33
2023-08-16T00:34:13.008Z,17.32
2023-08-16T00:36:42.214Z,17.31
2023-08-16T00:39:08.839Z,17.34
2023-08-16T00:41:35.622Z,17.40
2023-08-16T00:44:02.276Z,17.51
2023-08-16T00:46:31.611Z,17.61
2023-08-16T00:48:58.582Z,17.89
2023-08-16T00:51:25.503Z,17.99
2023-08-16T00:53:53.953Z,18.09
2023-08-16T00:56:21.407Z,18.26
2023-08-16T00:58:48.153Z,18.13
2023-08-16T01:01:15.473Z,18.32
2023-08-16T01:03:42.252Z,18.32
2023-08-16T01:06:09.323Z,18.39
2023-08-16T01:08:36.157Z,18.26
2023-08-16T01:11:30.878Z,18.21
2023-08-16T01:14:37.719Z,18.23
2023-08-16T01:17:07.162Z,18.22
2023-08-16T01:19:35.062Z,18.25
2023-08-16T01:22:29.583Z,18.20
2023-08-16T01:25:27.008Z,18.17
2023-08-16T01:27:54.884Z,18.15
2023-08-16T01:30:22.289Z,18.45
2023-08-16T01:32:49.771Z,18.44
2023-08-16T01:35:17.837Z,18.59
2023-08-16T01:37:45.096Z,18.67
2023-08-16T01:40:12.577Z,18.69
2023-08-16T01:42:47.814Z,18.90
2023-08-16T01:45:17.941Z,19.01
2023-08-16T01:47:48.558Z,19.03
2023-08-16T01:50:15.744Z,19.17
2023-08-16T01:52:42.811Z,19.27
2023-08-16T01:55:09.690Z,19.33
2023-08-16T01:57:36.333Z,19.38
2023-08-16T02:00:03.391Z,19.01
2023-08-16T02:02:30.228Z,19.19
2023-08-16T02:04:57.297Z,19.03
2023-08-16T02:07:24.871Z,18.88
2023-08-16T02:09:51.753Z,18.90
2023-08-16T02:12:18.860Z,18.97
2023-08-16T02:14:45.518Z,18.84
2023-08-16T02:17:12.220Z,18.77
2023-08-16T02:19:38.935Z,18.90
2023-08-16T02:22:05.952Z,19.01
2023-08-16T02:24:32.663Z,19.07
2023-08-16T02:27:00.341Z,19.03
2023-08-16T02:29:27.036Z,19.03
2023-08-16T02:31:53.731Z,18.72
2023-08-16T02:34:20.417Z,18.95
2023-08-16T02:36:47.094Z,18.83
2023-08-16T02:39:13.721Z,18.85
2023-08-16T02:41:40.432Z,18.87
2023-08-16T02:44:07.254Z,18.93
2023-08-16T02:46:33.941Z,18.87
2023-08-16T02:49:01.210Z,18.70
2023-08-16T02:51:27.845Z,18.77
2023-08-16T02:53:54.508Z,18.50
2023-08-16T02:56:21.226Z,18.56
2023-08-16T02:58:47.895Z,18.58
2023-08-16T03:01:15.956Z,18.59
2023-08-16T03:03:43.423Z,18.67
2023-08-16T03:06:10.101Z,18.72
2023-08-16T03:08:36.985Z,18.80
2023-08-16T03:11:03.734Z,18.64
2023-08-16T03:13:30.438Z,18.54
2023-08-16T03:15:57.212Z,18.55
2023-08-16T03:18:23.924Z,18.38
2023-08-16T03:20:50.782Z,18.56
2023-08-16T03:23:17.492Z,18.59
2023-08-16T03:25:45.493Z,18.60
2023-08-16T03:28:12.358Z,18.59
2023-08-16T03:30:40.215Z,18.46
2023-08-16T03:33:07.661Z,18.67
2023-08-16T03:35:34.525Z,18.77
2023-08-16T03:38:01.225Z,18.65
2023-08-16T03:40:28.008Z,18.59
2023-08-16T03:42:54.674Z,18.57
2023-08-16T03:45:26.475Z,18.80
2023-08-16T03:47:58.351Z,18.92
2023-08-16T03:50:25.004Z,18.78
2023-08-16T03:52:51.855Z,18.62
2023-08-16T03:55:18.500Z,18.75
2023-08-16T03:57:45.152Z,18.89
2023-08-16T04:00:13.262Z,18.91
2023-08-16T04:02:40.837Z,18.72
2023-08-16T04:05:10.460Z,18.81
2023-08-16T04:07:37.276Z,18.81
2023-08-16T04:10:04.437Z,19.04
2023-08-16T04:12:31.069Z,19.20
2023-08-16T04:14:57.740Z,19.26
2023-08-16T04:17:24.786Z,19.36
2023-08-16T04:19:52.443Z,19.19
2023-08-16T04:22:19.094Z,19.04
2023-08-16T04:24:46.479Z,19.31
2023-08-16T04:27:13.168Z,19.45
2023-08-16T04:29:39.903Z,19.38
2023-08-16T04:32:06.910Z,19.39
2023-08-16T04:34:33.633Z,19.34
2023-08-16T04:37:00.270Z,19.08
2023-08-16T04:39:27.696Z,19.24
2023-08-16T04:41:54.415Z,19.41
2023-08-16T04:44:21.054Z,19.36
2023-08-16T04:46:48.766Z,19.36
2023-08-16T04:49:16.390Z,19.55
2023-08-16T04:51:43.103Z,19.49
2023-08-16T04:54:09.821Z,19.53
2023-08-16T04:56:37.249Z,19.47
2023-08-16T04:59:04.134Z,19.48
2023-08-16T05:01:30.864Z,19.66
2023-08-16T05:03:57.611Z,19.51
2023-08-16T05:06:24.332Z,19.58
2023-08-16T05:08:51.029Z,19.64
2023-08-16T05:11:17.978Z,19.78
2023-08-16T05:13:44.600Z,19.56
2023-08-16T05:16:11.307Z,19.57
2023-08-16T05:18:38.841Z,19.62
2023-08-16T05:21:06.299Z,19.66
2023-08-16T05:23:34.708Z,20.02
2023-08-16T05:26:01.745Z,20.07
2023-08-16T05:28:29.525Z,19.90
2023-08-16T05:30:56.207Z,19.79
2023-08-16T05:33:23.043Z,19.87
2023-08-16T05:35:49.919Z,20.07
2023-08-16T05:38:16.590Z,19.95
2023-08-16T05:40:43.253Z,19.86
2023-08-16T05:43:09.987Z,19.79
2023-08-16T05:45:37.607Z,19.76
2023-08-16T05:48:04.862Z,20.21
2023-08-16T05:50:31.588Z,20.11
2023-08-16T05:52:58.323Z,20.29
2023-08-16T05:55:26.319Z,20.50
2023-08-16T05:57:55.261Z,20.57
2023-08-16T06:03:03.851Z,20.54
2023-08-16T06:05:30.753Z,20.59
2023-08-16T06:07:58.651Z,20.30
2023-08-16T06:10:26.108Z,20.39
2023-08-16T06:12:52.743Z,20.18
2023-08-16T06:15:19.482Z,20.27
2023-08-16T06:17:46.193Z,20.47
2023-08-16T06:20:13.089Z,20.47
2023-08-16T06:22:40.249Z,20.72
2023-08-16T06:25:08.490Z,20.69
2023-08-16T06:27:35.387Z,20.53
2023-08-16T06:30:02.682Z,20.58
2023-08-16T06:32:29.809Z,20.88
2023-08-16T06:34:56.500Z,20.92
2023-08-16T06:37:23.368Z,20.60
2023-08-16T06:39:50.347Z,20.89
2023-08-16T06:42:16.982Z,21.03
2023-08-16T06:44:43.606Z,21.09
2023-08-16T06:47:10.299Z,21.07
2023-08-16T06:49:36.978Z,20.89
2023-08-16T06:52:04.815Z,21.13
2023-08-16T06:54:31.609Z,20.95
2023-08-16T06:56:59.334Z,21.17
2023-08-16T06:59:27.123Z,21.52
2023-08-16T07:01:53.912Z,21.73
2023-08-16T07:04:20.590Z,21.79
2023-08-16T07:06:47.246Z,21.98
2023-08-16T07:09:13.989Z,22.11
2023-08-16T07:11:40.700Z,22.02
2023-08-16T07:14:07.389Z,22.02
2023-08-16T07:16:34.856Z,21.88
2023-08-16T07:19:02.599Z,21.98
2023-08-16T07:21:29.226Z,21.92
2023-08-16T07:23:56.012Z,21.98
2023-08-16T07:26:23.808Z,21.58
2023-08-16T07:28:50.438Z,21.64
2023-08-16T07:31:20.795Z,21.87
2023-08-16T07:33:47.489Z,21.70
2023-08-16T07:36:14.216Z,21.49
2023-08-16T07:38:41.002Z,21.94
2023-08-16T07:41:08.472Z,21.65
2023-08-16T07:43:35.885Z,22.11
2023-08-16T07:46:03.708Z,21.91
2023-08-16T07:48:30.707Z,21.89
2023-08-16T07:50:57.485Z,22.06
2023-08-16T07:53:24.208Z,21.94
2023-08-16T07:55:50.943Z,22.09
2023-08-16T07:58:17.894Z,21.76
2023-08-16T08:00:47.308Z,21.83
2023-08-16T08:03:13.972Z,21.66
2023-08-16T08:05:41.021Z,22.12
2023-08-16T08:08:08.968Z,22.09
2023-08-16T08:10:35.650Z,22.56
2023-08-16T08:13:02.365Z,22.14
2023-08-16T08:15:29.852Z,22.25
2023-08-16T08:17:56.605Z,22.63
2023-08-16T08:20:23.339Z,22.46
2023-08-16T08:22:50.006Z,22.68
2023-08-16T08:25:16.792Z,23.09
2023-08-16T08:27:43.501Z,22.89
2023-08-16T08:30:10.957Z,23.06
2023-08-16T08:32:37.805Z,23.09
2023-08-16T08:35:06.331Z,22.95
2023-08-16T08:37:33.082Z,22.75
2023-08-16T08:39:59.840Z,23.24
2023-08-16T08:42:29.822Z,23.04
2023-08-16T08:44:58.042Z,22.76
2023-08-16T08:47:26.548Z,23.44
2023-08-16T08:49:54.317Z,23.42
2023-08-16T08:52:22.728Z,23.56
2023-08-16T08:54:50.398Z,22.77
2023-08-16T08:57:20.034Z,22.65
2023-08-16T08:59:51.254Z,22.96
2023-08-16T09:02:19.155Z,22.23
2023-08-16T09:04:47.832Z,22.30
2023-08-16T09:07:18.311Z,22.34
2023-08-16T09:09:45.549Z,22.25
2023-08-16T09:12:16.758Z,22.21
2023-08-16T09:14:43.388Z,22.64
2023-08-16T09:17:10.089Z,22.64
2023-08-16T09:19:45.075Z,22.70
2023-08-16T09:22:13.459Z,22.64
2023-08-16T09:24:44.573Z,22.71
2023-08-16T09:27:15.757Z,22.65
2023-08-16T09:29:42.416Z,22.75
2023-08-16T09:32:16.601Z,22.89
2023-08-16T09:37:18.131Z,23.56
2023-08-16T09:39:44.779Z,23.69
2023-08-16T09:42:12.165Z,24.04
2023-08-16T09:44:42.778Z,24.80
2023-08-16T09:47:18.226Z,24.69
2023-08-16T09:49:48.125Z,24.25
2023-08-16T09:52:15.446Z,24.73
2023-08-16T09:54:42.224Z,24.99
2023-08-16T09:59:40.637Z,25.65
2023-08-16T10:02:14.264Z,25.72
2023-08-16T10:07:14.314Z,25.99
2023-08-16T10:09:45.321Z,25.93
2023-08-16T10:12:12.782Z,26.39
2023-08-16T10:14:39.928Z,26.19
2023-08-16T10:17:08.306Z,25.89
2023-08-16T10:19:38.521Z,26.20
2023-08-16T10:22:23.281Z,26.04
2023-08-16T10:25:00.440Z,25.93
2023-08-16T10:27:28.578Z,26.23
2023-08-16T10:32:31.776Z,26.37
2023-08-16T10:35:00.613Z,26.43
2023-08-16T10:37:27.528Z,26.30
2023-08-16T10:42:28.104Z,26.54
2023-08-16T10:44:55.145Z,26.86
2023-08-16T10:47:31.984Z,27.09
2023-08-16T10:50:02.136Z,26.92
2023-08-16T10:52:31.975Z,26.86
2023-08-16T10:55:00.784Z,26.90
2023-08-16T10:57:27.795Z,26.92
2023-08-16T11:00:08.370Z,27.06
2023-08-16T11:02:38.489Z,27.32
2023-08-16T11:05:06.710Z,26.80
2023-08-16T11:07:33.427Z,27.26
2023-08-16T11:10:01.589Z,27.58
2023-08-16T11:12:32.443Z,27.93
2023-08-16T11:14:59.522Z,27.47
2023-08-16T11:17:30.674Z,27.89
2023-08-16T11:19:57.925Z,27.88
2023-08-16T11:22:29.642Z,28.17
2023-08-16T11:24:56.622Z,27.64
2023-08-16T11:27:24.123Z,27.94
2023-08-16T11:29:52.174Z,28.71
2023-08-16T11:32:54.163Z,28.62
2023-08-16T11:35:21.293Z,28.35
2023-08-16T11:37:47.996Z,27.99
2023-08-16T11:40:14.676Z,28.31
2023-08-16T11:42:42.257Z,27.99
2023-08-16T11:45:19.424Z,28.22
2023-08-16T11:47:50.469Z,28.35
2023-08-16T11:50:17.386Z,28.14
2023-08-16T11:52:44.111Z,28.27
2023-08-16T11:55:15.457Z,28.27
2023-08-16T11:57:46.497Z,28.37
2023-08-16T12:00:16.687Z,28.17
2023-08-16T12:02:44.856Z,28.44
2023-08-16T12:05:12.422Z,28.18
2023-08-16T12:07:48.832Z,28.19
2023-08-16T12:10:25.695Z,28.19
2023-08-16T12:12:53.838Z,28.10
2023-08-16T12:15:23.958Z,27.94
2023-08-16T12:17:56.358Z,28.01
2023-08-16T12:20:26.553Z,27.81
2023-08-16T12:22:55.219Z,27.65
2023-08-16T12:25:22.076Z,27.82
2023-08-16T12:27:48.704Z,27.89
2023-08-16T12:30:15.463Z,27.79
2023-08-16T12:32:42.715Z,27.89
2023-08-16T12:35:09.598Z,28.10
2023-08-16T12:37:38.591Z,28.17
2023-08-16T12:40:13.878Z,28.32
2023-08-16T12:42:42.963Z,28.31
2023-08-16T12:45:10.952Z,28.01
2023-08-16T12:47:37.808Z,27.93
2023-08-16T12:50:05.147Z,28.17
2023-08-16T12:52:31.857Z,28.25
2023-08-16T12:54:59.558Z,28.43
2023-08-16T12:57:26.540Z,28.55
2023-08-16T12:59:54.621Z,28.47
2023-08-16T13:02:36.338Z,28.59
2023-08-16T13:05:11.158Z,28.75
2023-08-16T13:10:23.164Z,28.85
2023-08-16T13:18:19.154Z,28.69
2023-08-16T13:23:11.498Z,29.03
2023-08-16T13:25:58.181Z,28.99
2023-08-16T13:28:44.496Z,29.24
2023-08-16T13:31:22.225Z,28.98
2023-08-16T13:36:42.963Z,29.18
2023-08-16T13:39:10.641Z,29.29
2023-08-16T13:44:44.607Z,29.52
2023-08-16T13:46:54.099Z,29.21
2023-08-16T13:49:20.860Z,29.23
2023-08-16T13:51:47.578Z,29.29
2023-08-16T13:54:14.225Z,29.34
2023-08-16T13:56:48.291Z,29.52
2023-08-16T13:59:16.253Z,29.55
2023-08-16T14:01:43.587Z,29.16
2023-08-16T14:04:10.477Z,29.48
2023-08-16T14:06:37.108Z,29.40
2023-08-16T14:09:04.827Z,29.45
2023-08-16T14:11:31.806Z,29.38
2023-08-16T14:13:59.107Z,29.21
2023-08-16T14:16:26.476Z,29.44
2023-08-16T14:18:54.841Z,29.50
2023-08-16T14:21:21.565Z,29.79
2023-08-16T14:23:56.050Z,29.99
2023-08-16T14:26:22.987Z,30.13
2023-08-16T14:28:49.840Z,30.06
2023-08-16T14:31:18.718Z,30.67
2023-08-16T14:33:45.375Z,30.42
2023-08-16T14:36:12.096Z,30.35
2023-08-16T14:38:46.741Z,30.64
2023-08-16T14:41:25.097Z,30.39
2023-08-16T14:43:51.846Z,29.97
2023-08-16T14:46:20.216Z,30.36
2023-08-16T14:48:48.288Z,30.20
2023-08-16T14:51:16.052Z,30.61
2023-08-16T14:53:42.745Z,30.55
2023-08-16T14:56:12.896Z,30.37
2023-08-16T14:58:41.270Z,30.11
2023-08-16T15:01:08.548Z,30.11
2023-08-16T15:03:36.099Z,30.05
2023-08-16T15:06:03.172Z,29.88
2023-08-16T15:08:30.302Z,29.96
2023-08-16T15:11:01.023Z,30.17
2023-08-16T15:13:28.280Z,30.40
2023-08-16T15:15:57.421Z,30.33
2023-08-16T15:18:24.286Z,30.21
2023-08-16T15:20:51.844Z,30.37
2023-08-16T15:23:24.236Z,30.15
2023-08-16T15:25:51.020Z,29.86
2023-08-16T15:28:18.030Z,29.69
2023-08-16T15:30:44.779Z,30.32
2023-08-16T15:33:11.412Z,30.46
2023-08-16T15:35:38.396Z,30.60
2023-08-16T15:38:07.574Z,30.63
2023-08-16T15:40:36.631Z,30.32
2023-08-16T15:43:03.232Z,30.10
2023-08-16T15:45:29.955Z,29.79
2023-08-16T15:47:56.653Z,29.62
2023-08-16T15:50:23.395Z,30.05
2023-08-16T15:52:50.104Z,29.93
2023-08-16T15:55:16.838Z,30.03
2023-08-16T15:57:43.534Z,30.13
2023-08-16T16:00:11.460Z,29.93
2023-08-16T16:02:38.154Z,29.76
2023-08-16T16:05:05.436Z,30.00
2023-08-16T16:07:33.664Z,29.98
2023-08-16T16:10:00.430Z,29.97
2023-08-16T16:12:27.082Z,30.04
2023-08-16T16:14:53.752Z,30.05
2023-08-16T16:17:25.774Z,29.53
2023-08-16T16:19:53.184Z,29.00
2023-08-16T16:22:19.956Z,28.68
2023-08-16T16:24:47.339Z,28.54
2023-08-16T16:27:14.050Z,28.61
2023-08-16T16:29:40.807Z,28.67
2023-08-16T16:32:07.767Z,28.72
2023-08-16T16:34:34.652Z,28.70
2023-08-16T16:37:01.374Z,28.57
2023-08-16T16:39:28.211Z,28.31
2023-08-16T16:41:54.945Z,28.32
2023-08-16T16:44:22.522Z,28.12
2023-08-16T16:46:51.002Z,28.21
2023-08-16T16:49:18.278Z,27.69
2023-08-16T16:51:45.684Z,27.58
2023-08-16T16:54:12.330Z,27.15
2023-08-16T16:56:39.051Z,25.72
2023-08-16T16:59:05.803Z,25.31
2023-08-16T17:01:33.973Z,24.95
2023-08-16T17:04:02.315Z,24.30
2023-08-16T17:06:29.047Z,23.91
2023-08-16T17:08:56.964Z,22.98
2023-08-16T17:11:24.765Z,22.30
2023-08-16T17:13:53.002Z,22.60
2023-08-16T17:16:21.026Z,22.28
2023-08-16T17:18:47.671Z,22.73
2023-08-16T17:21:17.134Z,22.33
2023-08-16T17:23:44.831Z,22.44
2023-08-16T17:26:12.305Z,22.32
2023-08-16T17:28:39.174Z,22.18
2023-08-16T17:31:09.305Z,22.14
2023-08-16T17:33:36.779Z,22.27
2023-08-16T17:36:14.153Z,22.07
2023-08-16T17:38:42.705Z,22.18
2023-08-16T17:41:10.163Z,22.17
2023-08-16T17:43:38.075Z,22.16
2023-08-16T17:46:04.944Z,22.07
2023-08-16T17:48:31.703Z,21.94
2023-08-16T17:50:58.481Z,21.96
2023-08-16T17:53:25.459Z,21.63
2023-08-16T17:55:52.906Z,21.30
2023-08-16T17:58:22.387Z,21.27
2023-08-16T18:00:55.019Z,21.08
2023-08-16T18:03:23.294Z,21.15
2023-08-16T18:05:50.038Z,21.15
2023-08-16T18:08:16.714Z,21.12
2023-08-16T18:10:43.332Z,21.16
2023-08-16T18:13:10.021Z,21.21
2023-08-16T18:15:36.708Z,21.09
2023-08-16T18:18:04.282Z,21.19
2023-08-16T18:20:31.043Z,21.13
2023-08-16T18:22:58.818Z,21.08
2023-08-16T18:25:25.681Z,21.19
2023-08-16T18:27:52.552Z,21.16
2023-08-16T18:30:19.297Z,21.17
2023-08-16T18:32:47.727Z,21.28
2023-08-16T18:35:14.488Z,21.32
2023-08-16T18:37:41.368Z,21.23
2023-08-16T18:40:09.930Z,21.22
2023-08-16T18:42:36.810Z,21.00
2023-08-16T18:45:03.796Z,21.07
2023-08-16T18:47:30.570Z,20.84
2023-08-16T18:49:57.339Z,20.82
2023-08-16T18:52:24.192Z,20.99
2023-08-16T18:54:51.356Z,20.90
2023-08-16T18:57:18.104Z,20.92
2023-08-16T18:59:44.750Z,20.96
2023-08-16T19:02:11.407Z,20.80
2023-08-16T19:04:38.163Z,20.67
2023-08-16T19:07:05.125Z,20.80
2023-08-16T19:09:31.807Z,20.64
2023-08-16T19:11:59.692Z,20.68
2023-08-16T19:14:29.611Z,20.64
2023-08-16T19:16:56.313Z,20.56
2023-08-16T19:19:24.675Z,20.47
2023-08-16T19:21:51.400Z,20.51
2023-08-16T19:24:18.321Z,20.24
2023-08-16T19:26:45.717Z,20.10
2023-08-16T19:29:12.774Z,20.24
2023-08-16T19:31:39.500Z,20.51
2023-08-16T19:34:07.304Z,20.59
2023-08-16T19:36:33.979Z,20.46
2023-08-16T19:39:00.778Z,20.59
2023-08-16T19:41:27.505Z,20.20
2023-08-16T19:43:55.086Z,20.27
2023-08-16T19:46:25.806Z,20.34
2023-08-16T19:48:52.625Z,20.19
2023-08-16T19:51:19.307Z,20.41
2023-08-16T19:53:46.042Z,20.21
2023-08-16T19:56:14.408Z,20.32
2023-08-16T19:58:41.065Z,20.31
2023-08-16T20:01:07.984Z,20.29
2023-08-16T20:03:34.965Z,20.51
2023-08-16T20:06:01.890Z,20.68
2023-08-16T20:08:28.549Z,20.58
2023-08-16T20:10:55.296Z,20.73
2023-08-16T20:13:22.606Z,20.56
2023-08-16T20:15:52.480Z,20.77
2023-08-16T20:18:20.653Z,20.77
2023-08-16T20:20:48.228Z,20.57
2023-08-16T20:23:14.932Z,20.37
2023-08-16T20:25:42.060Z,20.41
2023-08-16T20:28:08.986Z,20.42
2023-08-16T20:30:35.758Z,20.50
2023-08-16T20:33:02.627Z,20.52
2023-08-16T20:35:29.312Z,20.63
2023-08-16T20:37:56.173Z,20.64
2023-08-16T20:40:23.100Z,20.61
2023-08-16T20:42:49.851Z,20.39
2023-08-16T20:45:17.625Z,20.52
2023-08-16T20:47:44.642Z,20.54
2023-08-16T20:50:12.194Z,20.32
2023-08-16T20:52:42.961Z,20.26
2023-08-16T20:55:10.724Z,20.48
2023-08-16T20:57:37.554Z,20.51
2023-08-16T21:00:04.685Z,20.47
2023-08-16T21:02:31.637Z,20.47
2023-08-16T21:04:58.513Z,20.47
2023-08-16T21:07:25.348Z,20.37
2023-08-16T21:09:53.151Z,20.45
2023-08-16T21:12:20.504Z,20.29
2023-08-16T21:14:48.387Z,20.18
2023-08-16T21:17:15.783Z,20.37
2023-08-16T21:19:42.914Z,20.43
2023-08-16T21:22:09.652Z,20.39
2023-08-16T21:24:36.350Z,20.27
2023-08-16T21:27:04.237Z,20.22
2023-08-16T21:29:31.066Z,20.11
2023-08-16T21:31:57.928Z,19.94
2023-08-16T21:34:24.583Z,19.96
2023-08-16T21:36:51.241Z,19.96
2023-08-16T21:39:18.061Z,20.03
2023-08-16T21:41:44.935Z,20.08
2023-08-16T21:44:11.698Z,20.13
2023-08-16T21:46:38.490Z,20.26
2023-08-16T21:49:06.203Z,20.37
2023-08-16T21:51:33.037Z,20.38
2023-08-16T21:53:59.703Z,20.22
2023-08-16T21:56:26.513Z,20.34
2023-08-16T21:58:53.244Z,20.15
2023-08-16T22:01:20.017Z,20.35
2023-08-16T22:03:47.666Z,20.22
2023-08-16T22:06:14.841Z,20.21
2023-08-16T22:08:41.515Z,20.32
2023-08-16T22:11:08.231Z,20.27
2023-08-16T22:13:36.687Z,20.28
2023-08-16T22:16:04.104Z,20.27
2023-08-16T22:18:30.907Z,20.09
2023-08-16T22:21:03.445Z,20.06
2023-08-16T22:23:31.974Z,19.98
2023-08-16T22:25:58.718Z,19.96
2023-08-16T22:28:25.742Z,20.14
2023-08-16T22:30:52.530Z,19.97
2023-08-16T22:33:19.239Z,19.94
2023-08-16T22:35:45.867Z,20.02
2023-08-16T22:38:16.492Z,20.03
2023-08-16T22:40:43.606Z,20.07
2023-08-16T22:43:10.358Z,20.02
2023-08-16T22:45:37.122Z,20.03
2023-08-16T22:48:04.229Z,19.98
2023-08-16T22:50:31.540Z,19.71
2023-08-16T22:52:58.618Z,19.86
2023-08-16T22:55:25.362Z,20.02
2023-08-16T22:57:52.167Z,20.08
2023-08-16T23:00:18.970Z,20.16
2023-08-16T23:02:45.842Z,19.97
2023-08-16T23:05:12.764Z,19.91
2023-08-16T23:07:39.411Z,19.81
2023-08-16T23:10:06.460Z,19.81
2023-08-16T23:12:33.146Z,19.81
2023-08-16T23:15:00.096Z,19.66
2023-08-16T23:17:27.021Z,19.78
2023-08-16T23:19:54.223Z,19.79
2023-08-16T23:22:20.968Z,19.76
2023-08-16T23:24:47.655Z,19.86
2023-08-16T23:27:14.315Z,19.80
2023-08-16T23:29:41.041Z,19.82
2023-08-16T23:32:07.820Z,19.68
2023-08-16T23:34:34.596Z,19.70
2023-08-16T23:37:01.273Z,19.59
2023-08-16T23:39:27.990Z,19.52
2023-08-16T23:41:57.954Z,19.46
2023-08-16T23:44:28.102Z,19.48
2023-08-16T23:46:54.866Z,19.50
2023-08-16T23:49:21.884Z,19.50
2023-08-16T23:51:49.214Z,19.41
2023-08-16T23:54:15.925Z,19.35
2023-08-16T23:56:42.640Z,19.24
2023-08-16T23:59:09.370Z,19.28
